createdAt,value
2023-01-23T00:01:26.967Z,23.20
2023-01-23T00:03:55.506Z,26.47
2023-01-23T00:06:22.616Z,27.70
2023-01-23T00:08:49.374Z,26.77
2023-01-23T00:11:22.214Z,26.90
2023-01-23T00:13:49.348Z,28.53
2023-01-23T00:16:20.672Z,24.93
2023-01-23T00:18:48.213Z,27.37
2023-01-23T00:21:20.623Z,24.67
2023-01-23T00:23:51.974Z,25.40
2023-01-23T00:26:26.029Z,23.70
2023-01-23T00:28:53.875Z,26.07
2023-01-23T00:31:24.753Z,23.17
2023-01-23T00:33:55.249Z,21.47
2023-01-23T00:36:21.904Z,28.77
2023-01-23T00:38:48.482Z,27.00
2023-01-23T00:41:15.107Z,23.50
2023-01-23T00:43:42.343Z,25.10
2023-01-23T00:46:09.050Z,24.57
2023-01-23T00:48:38.515Z,28.43
2023-01-23T00:51:05.765Z,25.50
2023-01-23T00:53:32.304Z,21.87
2023-01-23T00:55:58.857Z,18.70
2023-01-23T00:58:28.426Z,22.80
2023-01-23T01:00:57.332Z,28.47
2023-01-23T01:03:25.383Z,24.43
2023-01-23T01:05:52.357Z,25.33
2023-01-23T01:08:19.259Z,24.73
2023-01-23T01:10:47.986Z,28.97
2023-01-23T01:13:21.338Z,25.17
2023-01-23T01:15:49.726Z,26.93
2023-01-23T01:18:17.475Z,28.03
2023-01-23T01:20:47.266Z,25.20
2023-01-23T01:23:14.374Z,26.63
2023-01-23T01:25:40.979Z,24.53
2023-01-23T01:28:08.100Z,28.30
2023-01-23T01:30:36.842Z,22.83
2023-01-23T01:33:03.958Z,28.23
2023-01-23T01:35:30.589Z,24.93
2023-01-23T01:37:57.251Z,28.70
2023-01-23T01:40:33.417Z,28.20
2023-01-23T01:43:08.807Z,30.50
2023-01-23T01:46:09.414Z,25.90
2023-01-23T01:48:41.038Z,28.93
2023-01-23T01:51:24.747Z,27.57
2023-01-23T01:54:00.499Z,29.43
2023-01-23T01:56:29.399Z,26.93
2023-01-23T01:58:58.326Z,29.60
2023-01-23T02:01:25.621Z,25.47
2023-01-23T02:03:56.533Z,25.87
2023-01-23T02:06:24.167Z,29.87
2023-01-23T02:08:59.448Z,22.13
2023-01-23T02:11:26.014Z,22.43
2023-01-23T02:13:57.059Z,28.10
2023-01-23T02:16:29.637Z,24.20
2023-01-23T02:19:04.568Z,28.87
2023-01-23T02:21:31.255Z,28.77
2023-01-23T02:24:31.931Z,28.67
2023-01-23T02:26:58.613Z,35.10
2023-01-23T02:29:40.646Z,27.93
2023-01-23T02:32:07.394Z,28.60
2023-01-23T02:34:37.453Z,32.97
2023-01-23T02:37:05.309Z,25.63
2023-01-23T02:39:32.960Z,26.83
2023-01-23T02:42:01.248Z,28.53
2023-01-23T02:44:31.925Z,26.50
2023-01-23T02:47:08.016Z,29.63
2023-01-23T02:49:36.901Z,26.47
2023-01-23T02:52:03.618Z,29.27
2023-01-23T02:54:30.225Z,26.87
2023-01-23T02:56:59.238Z,27.87
2023-01-23T02:59:44.482Z,31.00
2023-01-23T03:02:11.344Z,27.73
2023-01-23T03:04:38.009Z,29.73
2023-01-23T03:07:04.575Z,29.17
2023-01-23T03:09:31.084Z,29.97
2023-01-23T03:11:57.792Z,26.50
2023-01-23T03:14:27.273Z,27.27
2023-01-23T03:16:56.347Z,31.37
2023-01-23T03:19:25.528Z,37.63
2023-01-23T03:21:53.454Z,25.50
2023-01-23T03:24:23.611Z,26.77
2023-01-23T03:26:50.943Z,33.37
2023-01-23T03:29:41.288Z,30.83
2023-01-23T03:32:09.956Z,27.87
2023-01-23T03:34:36.628Z,30.23
2023-01-23T03:37:07.924Z,28.93
2023-01-23T03:39:53.584Z,27.87
2023-01-23T03:42:21.157Z,28.00
2023-01-23T03:44:48.214Z,29.10
2023-01-23T03:47:14.917Z,35.20
2023-01-23T03:49:43.787Z,33.57
2023-01-23T03:52:10.385Z,30.00
2023-01-23T03:54:37.182Z,27.83
2023-01-23T03:57:03.790Z,28.43
2023-01-23T03:59:30.515Z,31.43
2023-01-23T04:01:58.177Z,31.23
2023-01-23T04:04:24.802Z,27.57
2023-01-23T04:06:51.483Z,27.17
2023-01-23T04:09:18.221Z,34.50
2023-01-23T04:11:44.811Z,31.20
2023-01-23T04:14:11.381Z,26.70
2023-01-23T04:16:38.005Z,32.07
2023-01-23T04:19:04.806Z,32.37
2023-01-23T04:21:31.436Z,30.00
2023-01-23T04:24:00.292Z,32.67
2023-01-23T04:26:26.983Z,25.77
2023-01-23T04:28:53.523Z,29.23
2023-01-23T04:31:20.281Z,31.53
2023-01-23T04:33:46.981Z,30.77
2023-01-23T04:36:16.092Z,28.37
2023-01-23T04:38:42.701Z,30.37
2023-01-23T04:41:14.873Z,31.53
2023-01-23T04:43:41.460Z,29.83
2023-01-23T04:46:10.335Z,24.83
2023-01-23T04:48:36.979Z,27.50
2023-01-23T04:51:03.726Z,31.00
2023-01-23T04:53:30.398Z,30.17
2023-01-23T04:55:57.033Z,27.43
2023-01-23T04:58:23.746Z,26.50
2023-01-23T05:00:53.849Z,30.33
2023-01-23T05:03:20.636Z,27.87
2023-01-23T05:05:48.561Z,33.87
2023-01-23T05:08:15.170Z,29.53
2023-01-23T05:10:44.201Z,27.43
2023-01-23T05:13:10.769Z,26.77
2023-01-23T05:15:37.351Z,30.33
2023-01-23T05:18:04.040Z,35.10
2023-01-23T05:20:30.610Z,33.33
2023-01-23T05:22:58.618Z,31.60
2023-01-23T05:25:28.127Z,30.87
2023-01-23T05:27:54.921Z,31.87
2023-01-23T05:30:23.132Z,31.67
2023-01-23T05:32:50.009Z,34.13
2023-01-23T05:35:17.250Z,26.13
2023-01-23T05:37:43.947Z,33.90
2023-01-23T05:40:12.807Z,35.87
2023-01-23T05:42:41.808Z,22.80
2023-01-23T05:45:08.948Z,38.10
2023-01-23T05:47:35.864Z,38.00
2023-01-23T05:50:05.840Z,34.47
2023-01-23T05:52:32.399Z,39.80
2023-01-23T05:55:01.608Z,32.47
2023-01-23T05:57:28.273Z,33.30
2023-01-23T05:59:54.823Z,33.80
2023-01-23T06:02:21.420Z,36.27
2023-01-23T06:04:49.215Z,33.63
2023-01-23T06:07:17.392Z,29.63
2023-01-23T06:09:44.513Z,34.53
2023-01-23T06:12:11.943Z,33.20
2023-01-23T06:14:40.872Z,37.97
2023-01-23T06:17:08.017Z,39.07
2023-01-23T06:19:34.707Z,34.73
2023-01-23T06:22:01.251Z,37.00
2023-01-23T06:24:27.819Z,36.73
2023-01-23T06:26:56.778Z,32.30
2023-01-23T06:29:25.845Z,37.07
2023-01-23T06:31:52.485Z,32.37
2023-01-23T06:34:19.059Z,37.53
2023-01-23T06:36:46.330Z,39.67
2023-01-23T06:39:16.735Z,31.23
2023-01-23T06:41:43.744Z,37.17
2023-01-23T06:44:10.454Z,32.70
2023-01-23T06:46:37.496Z,32.00
2023-01-23T06:49:06.273Z,30.00
2023-01-23T06:51:33.964Z,33.83
2023-01-23T06:54:00.837Z,35.30
2023-01-23T06:56:32.736Z,36.20
2023-01-23T06:58:59.283Z,39.20
2023-01-23T07:01:29.150Z,36.90
2023-01-23T07:03:58.107Z,28.03
2023-01-23T07:06:25.943Z,33.77
2023-01-23T07:08:52.554Z,31.93
2023-01-23T07:11:19.659Z,31.63
2023-01-23T07:13:46.229Z,26.93
2023-01-23T07:16:12.920Z,32.73
2023-01-23T07:18:39.631Z,33.53
2023-01-23T07:21:08.815Z,32.07
2023-01-23T07:23:35.843Z,32.50
2023-01-23T07:26:04.541Z,27.40
2023-01-23T07:28:31.206Z,35.37
2023-01-23T07:30:59.129Z,32.53
2023-01-23T07:33:26.038Z,30.37
2023-01-23T07:35:52.654Z,29.00
2023-01-23T07:38:19.503Z,31.10
2023-01-23T07:40:46.162Z,32.77
2023-01-23T07:43:12.774Z,33.73
2023-01-23T07:45:41.810Z,28.00
2023-01-23T07:48:08.440Z,25.20
2023-01-23T07:50:35.789Z,27.47
2023-01-23T07:53:03.442Z,29.10
2023-01-23T07:55:30.337Z,30.37
2023-01-23T07:57:59.323Z,27.53
2023-01-23T08:00:29.339Z,33.93
2023-01-23T08:02:56.745Z,29.53
2023-01-23T08:05:23.321Z,30.43
2023-01-23T08:07:50.978Z,33.17
2023-01-23T08:10:21.475Z,34.63
2023-01-23T08:12:48.299Z,27.27
2023-01-23T08:15:15.044Z,27.30
2023-01-23T08:17:41.587Z,30.13
2023-01-23T08:20:09.309Z,30.87
2023-01-23T08:22:37.386Z,31.97
2023-01-23T08:25:04.459Z,30.73
2023-01-23T08:27:33.586Z,29.03
2023-01-23T08:30:00.212Z,34.73
2023-01-23T08:32:29.227Z,34.83
2023-01-23T08:34:55.817Z,27.83
2023-01-23T08:37:22.457Z,30.17
2023-01-23T08:39:48.980Z,30.97
2023-01-23T08:42:15.811Z,28.17
2023-01-23T08:44:42.390Z,31.93
2023-01-23T08:47:09.006Z,26.43
2023-01-23T08:49:35.595Z,32.07
2023-01-23T08:52:02.436Z,34.70
2023-01-23T08:54:31.259Z,32.33
2023-01-23T08:56:57.980Z,29.97
2023-01-23T08:59:24.639Z,27.77
2023-01-23T09:01:51.981Z,25.97
2023-01-23T09:04:18.844Z,27.70
2023-01-23T09:06:47.928Z,31.03
2023-01-23T09:09:18.196Z,33.63
2023-01-23T09:11:46.759Z,34.80
2023-01-23T09:14:15.791Z,33.60
2023-01-23T09:16:42.499Z,27.27
2023-01-23T09:19:10.451Z,28.93
2023-01-23T09:21:37.105Z,25.17
2023-01-23T09:24:06.111Z,26.90
2023-01-23T09:26:32.743Z,24.47
2023-01-23T09:29:01.841Z,25.80
2023-01-23T09:31:28.473Z,26.77
2023-01-23T09:33:55.097Z,29.37
2023-01-23T09:36:33.650Z,27.90
2023-01-23T09:39:08.198Z,23.80
2023-01-23T09:41:34.923Z,24.73
2023-01-23T09:44:28.995Z,25.10
2023-01-23T09:47:02.710Z,24.67
2023-01-23T09:49:56.077Z,24.07
2023-01-23T09:52:28.973Z,26.83
2023-01-23T09:55:32.204Z,30.93
2023-01-23T09:58:03.512Z,24.23
2023-01-23T10:00:32.805Z,25.30
2023-01-23T10:03:10.834Z,25.17
2023-01-23T10:05:42.788Z,23.50
2023-01-23T10:08:36.921Z,23.87
2023-01-23T10:11:13.821Z,27.63
2023-01-23T10:14:10.562Z,27.67
2023-01-23T10:17:03.074Z,24.70
2023-01-23T10:19:51.617Z,22.30
2023-01-23T10:22:36.288Z,22.67
2023-01-23T10:25:22.523Z,24.70
2023-01-23T10:27:51.215Z,23.50
2023-01-23T10:30:34.734Z,22.47
2023-01-23T10:33:08.416Z,21.23
2023-01-23T10:35:50.845Z,26.57
2023-01-23T10:38:48.162Z,25.20
2023-01-23T10:41:21.785Z,19.57
2023-01-23T10:43:54.174Z,19.43
2023-01-23T10:46:33.223Z,24.88
2023-01-23T10:49:01.592Z,25.00
2023-01-23T10:51:35.123Z,21.63
2023-01-23T10:54:33.093Z,27.83
2023-01-23T10:57:20.870Z,24.00
2023-01-23T11:00:08.470Z,24.30
2023-01-23T11:02:38.183Z,24.70
2023-01-23T11:05:53.038Z,26.13
2023-01-23T11:08:41.672Z,27.93
2023-01-23T11:11:20.167Z,25.77
2023-01-23T11:13:48.885Z,23.27
2023-01-23T11:16:23.221Z,21.60
2023-01-23T11:19:05.454Z,21.10
2023-01-23T11:21:37.562Z,22.58
2023-01-23T11:24:08.475Z,23.17
2023-01-23T11:26:36.754Z,26.40
2023-01-23T11:29:21.952Z,25.30
2023-01-23T11:32:10.829Z,25.20
2023-01-23T11:34:43.052Z,23.93
2023-01-23T11:37:20.275Z,25.25
2023-01-23T11:39:49.675Z,21.42
2023-01-23T11:42:19.685Z,20.37
2023-01-23T11:44:50.052Z,23.77
2023-01-23T11:47:28.504Z,25.08
2023-01-23T11:50:20.966Z,24.43
2023-01-23T11:52:56.497Z,22.58
2023-01-23T11:55:41.511Z,20.37
2023-01-23T11:58:17.453Z,21.13
2023-01-23T12:00:59.192Z,23.98
2023-01-23T12:03:28.721Z,21.67
2023-01-23T12:06:22.183Z,24.58
2023-01-23T12:09:20.365Z,25.03
2023-01-23T12:11:52.859Z,21.42
2023-01-23T12:14:32.635Z,20.02
2023-01-23T12:17:36.186Z,20.98
2023-01-23T12:20:26.069Z,15.73
2023-01-23T12:23:15.056Z,21.07
2023-01-23T12:25:45.564Z,18.92
2023-01-23T12:28:43.012Z,23.07
2023-01-23T12:31:16.704Z,19.70
2023-01-23T12:33:43.256Z,21.90
2023-01-23T12:36:31.877Z,23.45
2023-01-23T12:39:07.727Z,20.27
2023-01-23T12:41:42.668Z,21.50
2023-01-23T12:44:18.310Z,18.40
2023-01-23T12:47:00.524Z,24.00
2023-01-23T12:49:34.819Z,21.95
2023-01-23T12:52:11.546Z,22.08
2023-01-23T12:54:45.950Z,21.75
2023-01-23T12:57:13.272Z,21.75
2023-01-23T13:00:04.882Z,21.23
2023-01-23T13:02:40.183Z,22.42
2023-01-23T13:05:17.267Z,26.25
2023-01-23T13:08:20.354Z,21.55
2023-01-23T13:11:33.726Z,22.85
2023-01-23T13:14:01.668Z,21.38
2023-01-23T13:16:32.044Z,23.70
2023-01-23T13:19:19.199Z,20.40
2023-01-23T13:22:29.115Z,24.45
2023-01-23T13:25:19.170Z,21.55
2023-01-23T13:27:51.276Z,28.23
2023-01-23T13:30:27.005Z,22.30
2023-01-23T13:33:01.736Z,22.75
2023-01-23T13:35:43.435Z,22.88
2023-01-23T13:38:37.745Z,21.95
2023-01-23T13:41:14.588Z,23.35
2023-01-23T13:43:50.277Z,26.15
2023-01-23T13:46:23.125Z,23.00
2023-01-23T14:22:46.916Z,22.80
2023-01-23T14:25:23.190Z,24.50
2023-01-23T14:28:03.625Z,24.25
2023-01-23T14:30:31.710Z,24.40
2023-01-23T14:32:59.371Z,18.20
2023-01-23T14:35:31.628Z,23.77
2023-01-23T14:38:08.495Z,22.35
2023-01-23T14:40:50.235Z,23.05
2023-01-23T14:43:24.287Z,20.35
2023-01-23T14:46:02.043Z,26.37
2023-01-23T14:48:30.981Z,22.97
2023-01-23T14:51:32.173Z,19.85
2023-01-23T14:54:20.351Z,23.67
2023-01-23T14:56:49.628Z,25.63
2023-01-23T14:59:31.419Z,23.30
2023-01-23T15:02:13.055Z,23.87
2023-01-23T15:05:16.708Z,19.43
2023-01-23T15:07:50.795Z,19.60
2023-01-23T15:10:39.960Z,20.80
2023-01-23T15:13:11.852Z,24.53
2023-01-23T15:15:44.461Z,23.13
2023-01-23T15:18:27.637Z,23.55
2023-01-23T15:21:02.885Z,22.43
2023-01-23T15:23:39.660Z,22.63
2023-01-23T15:26:18.309Z,22.33
2023-01-23T15:28:53.812Z,24.40
2023-01-23T15:31:30.589Z,22.07
2023-01-23T15:34:10.518Z,24.70
2023-01-23T15:36:37.358Z,22.07
2023-01-23T15:39:04.034Z,24.30
2023-01-23T15:41:45.111Z,30.60
2023-01-23T15:44:18.276Z,21.83
2023-01-23T15:46:47.301Z,23.60
2023-01-23T15:49:24.799Z,26.90
2023-01-23T15:51:55.488Z,23.83
2023-01-23T15:54:33.027Z,26.53
2023-01-23T15:57:07.577Z,28.47
2023-01-23T15:59:35.481Z,21.63
2023-01-23T16:02:02.182Z,22.77
2023-01-23T16:04:28.774Z,23.47
2023-01-23T16:06:55.634Z,26.90
2023-01-23T16:09:34.055Z,23.80
2023-01-23T16:12:03.137Z,22.73
2023-01-23T16:14:29.733Z,24.53
2023-01-23T16:17:02.231Z,22.03
2023-01-23T16:19:31.506Z,19.23
2023-01-23T16:22:04.575Z,19.77
2023-01-23T16:24:39.261Z,21.07
2023-01-23T16:27:11.266Z,20.10
2023-01-23T16:29:37.852Z,21.33
2023-01-23T16:32:05.044Z,22.23
2023-01-23T16:34:31.693Z,19.37
2023-01-23T16:37:00.806Z,22.20
2023-01-23T16:39:31.216Z,19.23
2023-01-23T16:42:03.236Z,21.53
2023-01-23T16:44:29.820Z,17.52
2023-01-23T16:47:06.029Z,17.77
2023-01-23T16:49:46.856Z,19.97
2023-01-23T16:52:17.827Z,21.83
2023-01-23T16:54:53.233Z,20.67
2023-01-23T16:57:20.870Z,19.30
2023-01-23T16:59:50.057Z,22.13
2023-01-23T17:02:26.327Z,17.07
2023-01-23T17:04:52.980Z,15.70
2023-01-23T17:07:24.900Z,18.77
2023-01-23T17:09:54.068Z,16.13
2023-01-23T17:12:24.797Z,18.13
2023-01-23T17:14:52.759Z,22.40
2023-01-23T17:17:27.888Z,26.93
2023-01-23T17:19:57.626Z,23.77
2023-01-23T17:22:35.153Z,23.07
2023-01-23T17:25:01.757Z,20.97
2023-01-23T17:27:28.722Z,17.97
2023-01-23T17:29:55.456Z,20.80
2023-01-23T17:32:35.438Z,20.17
2023-01-23T17:35:04.617Z,18.83
2023-01-23T17:37:31.243Z,22.15
2023-01-23T17:40:00.334Z,17.98
2023-01-23T17:42:31.696Z,19.87
2023-01-23T17:44:58.262Z,21.60
2023-01-23T17:47:25.702Z,18.73
2023-01-23T17:49:54.700Z,18.83
2023-01-23T17:52:21.986Z,19.10
2023-01-23T17:54:49.704Z,19.27
2023-01-23T17:57:16.376Z,21.73
2023-01-23T17:59:43.050Z,21.10
2023-01-23T18:02:27.058Z,22.30
2023-01-23T18:04:58.281Z,22.50
2023-01-23T18:07:24.858Z,19.27
2023-01-23T18:09:52.660Z,20.02
2023-01-23T18:13:08.832Z,18.23
2023-01-23T18:16:02.508Z,21.27
2023-01-23T18:18:35.603Z,21.00
2023-01-23T18:21:07.175Z,21.90
2023-01-23T18:23:38.962Z,20.40
2023-01-23T18:26:42.596Z,22.13
2023-01-23T18:29:30.994Z,22.48
2023-01-23T18:32:33.144Z,21.80
2023-01-23T18:35:23.287Z,21.17
2023-01-23T18:37:56.132Z,19.45
2023-01-23T18:40:51.622Z,21.42
2023-01-23T18:43:43.659Z,21.98
2023-01-23T18:46:16.269Z,20.80
2023-01-23T18:48:44.201Z,20.40
2023-01-23T18:51:13.499Z,19.88
2023-01-23T18:53:46.925Z,18.30
2023-01-23T18:56:31.843Z,16.13
2023-01-23T18:59:17.106Z,17.73
2023-01-23T19:01:53.353Z,18.00
2023-01-23T19:04:55.721Z,19.33
2023-01-23T19:07:22.934Z,24.17
2023-01-23T19:09:49.807Z,22.75
2023-01-23T19:12:25.590Z,17.30
2023-01-23T19:15:04.101Z,18.40
2023-01-23T19:17:42.047Z,17.53
2023-01-23T19:20:33.980Z,16.73
2023-01-23T19:23:21.791Z,18.07
2023-01-23T19:25:48.593Z,19.47
2023-01-23T19:28:22.463Z,20.27
2023-01-23T19:30:49.374Z,18.05
2023-01-23T19:33:18.189Z,14.75
2023-01-23T19:35:46.474Z,11.90
2023-01-23T19:38:15.076Z,17.63
2023-01-23T19:40:48.752Z,19.40
2023-01-23T19:43:18.919Z,17.80
2023-01-23T19:45:46.314Z,18.87
2023-01-23T19:48:13.306Z,18.43
2023-01-23T19:50:40.562Z,17.13
2023-01-23T19:53:07.272Z,17.53
2023-01-23T19:55:36.443Z,17.60
2023-01-23T19:58:03.042Z,10.37
2023-01-23T20:00:32.167Z,16.73
2023-01-23T20:02:59.350Z,19.73
2023-01-23T20:05:28.814Z,19.90
2023-01-23T20:07:58.760Z,18.37
2023-01-23T20:10:25.441Z,18.60
2023-01-23T20:12:52.444Z,17.70
2023-01-23T20:15:25.241Z,23.00
2023-01-23T20:17:52.788Z,23.38
2023-01-23T20:20:20.685Z,20.10
2023-01-23T20:22:49.806Z,23.20
2023-01-23T20:25:17.178Z,20.23
2023-01-23T20:27:44.760Z,23.90
2023-01-23T20:30:15.829Z,19.83
2023-01-23T20:32:45.148Z,20.95
2023-01-23T20:35:12.480Z,21.77
2023-01-23T20:37:41.649Z,21.60
2023-01-23T20:40:09.187Z,23.83
2023-01-23T20:42:39.354Z,16.02
2023-01-23T20:45:07.009Z,21.33
2023-01-23T20:47:36.242Z,20.53
2023-01-23T20:50:03.398Z,17.33
2023-01-23T20:52:48.669Z,21.13
2023-01-23T20:55:15.517Z,22.50
2023-01-23T20:58:08.294Z,22.43
2023-01-23T21:00:34.846Z,21.83
2023-01-23T21:03:01.521Z,22.33
2023-01-23T21:05:28.283Z,22.13
2023-01-23T21:07:54.823Z,22.77
2023-01-23T21:10:21.475Z,19.60
2023-01-23T21:12:48.026Z,21.63
2023-01-23T21:15:17.266Z,23.33
2023-01-23T21:17:43.892Z,16.47
2023-01-23T21:20:10.976Z,20.37
2023-01-23T21:22:39.833Z,22.90
2023-01-23T21:25:08.937Z,20.33
2023-01-23T21:27:35.569Z,22.60
2023-01-23T21:30:02.202Z,21.10
2023-01-23T21:32:28.739Z,21.87
2023-01-23T21:34:57.588Z,24.45
2023-01-23T21:37:24.503Z,23.47
2023-01-23T21:39:51.457Z,23.33
2023-01-23T21:42:18.085Z,22.60
2023-01-23T21:44:47.002Z,23.80
2023-01-23T21:47:13.608Z,22.33
2023-01-23T21:49:40.217Z,24.30
2023-01-23T21:52:06.971Z,23.50
2023-01-23T21:54:33.532Z,24.40
2023-01-23T21:57:00.106Z,26.73
2023-01-23T21:59:29.179Z,24.50
2023-01-23T22:01:55.795Z,22.00
2023-01-23T22:04:22.587Z,24.20
2023-01-23T22:06:55.921Z,23.77
2023-01-23T22:09:27.300Z,24.13
2023-01-23T22:11:54.852Z,23.93
2023-01-23T22:14:21.480Z,21.60
2023-01-23T22:16:51.285Z,22.00
2023-01-23T22:19:24.884Z,24.93
2023-01-23T22:21:53.474Z,22.40
2023-01-23T22:24:20.121Z,25.53
2023-01-23T22:26:46.859Z,25.80
2023-01-23T22:29:15.642Z,27.53
2023-01-23T22:31:42.723Z,27.67
2023-01-23T22:34:10.386Z,24.37
2023-01-23T22:36:37.078Z,27.10
2023-01-23T22:39:03.963Z,24.10
2023-01-23T22:41:30.560Z,27.73
2023-01-23T22:44:00.236Z,23.33
2023-01-23T22:46:29.620Z,21.63
2023-01-23T22:48:56.306Z,20.33
2023-01-23T22:51:25.580Z,19.00
2023-01-23T22:53:56.142Z,25.70
2023-01-23T22:56:24.382Z,22.03
2023-01-23T22:58:54.733Z,25.73
2023-01-23T23:01:24.304Z,21.93
2023-01-23T23:03:51.420Z,22.63
2023-01-23T23:06:18.612Z,23.37
2023-01-23T23:08:47.656Z,23.23
2023-01-23T23:11:28.684Z,23.53
2023-01-23T23:13:58.069Z,22.77
2023-01-23T23:16:28.380Z,18.80
2023-01-23T23:18:57.308Z,18.87
2023-01-23T23:21:28.345Z,21.67
2023-01-23T23:23:57.306Z,25.10
2023-01-23T23:26:26.796Z,24.60
2023-01-23T23:28:56.180Z,23.33
2023-01-23T23:31:25.563Z,19.83
2023-01-23T23:33:53.186Z,21.80
2023-01-23T23:36:19.893Z,23.50
2023-01-23T23:38:48.883Z,24.57
2023-01-23T23:41:17.262Z,21.40
2023-01-23T23:43:44.015Z,21.97
2023-01-23T23:46:14.729Z,17.30
2023-01-23T23:48:46.074Z,19.93
2023-01-23T23:51:14.782Z,19.27
2023-01-23T23:53:46.216Z,19.13
2023-01-23T23:56:20.671Z,19.43
2023-01-23T23:58:47.506Z,9.67
